sensor_id;sensor_type;location;lat;lon;timestamp;pressure;altitude;pressure_sealevel;temperature;humidity
36630;BME280;36256;42.154;23.002;2024-02-26T00:01:46;96767.84;;;8.63;100.00
36630;BME280;36256;42.154;23.002;2024-02-26T00:04:13;96774.31;;;8.60;100.00
36630;BME280;36256;42.154;23.002;2024-02-26T00:06:40;96771.22;;;8.58;100.00
36630;BME280;36256;42.154;23.002;2024-02-26T00:09:09;96769.84;;;8.62;100.00
36630;BME280;36256;42.154;23.002;2024-02-26T00:11:36;96768.50;;;8.67;100.00
36630;BME280;36256;42.154;23.002;2024-02-26T00:14:03;96769.47;;;8.73;100.00
36630;BME280;36256;42.154;23.002;2024-02-26T00:16:30;96779.09;;;8.72;100.00
36630;BME280;36256;42.154;23.002;2024-02-26T00:18:57;96767.78;;;8.76;100.00
36630;BME280;36256;42.154;23.002;2024-02-26T00:21:23;96761.47;;;8.84;100.00
36630;BME280;36256;42.154;23.002;2024-02-26T00:23:50;96766.59;;;8.86;100.00
36630;BME280;36256;42.154;23.002;2024-02-26T00:26:17;96763.88;;;8.95;100.00
36630;BME280;36256;42.154;23.002;2024-02-26T00:28:44;96759.41;;;8.97;100.00
36630;BME280;36256;42.154;23.002;2024-02-26T00:31:13;96766.53;;;8.98;100.00
36630;BME280;36256;42.154;23.002;2024-02-26T00:33:40;96761.88;;;8.95;100.00
36630;BME280;36256;42.154;23.002;2024-02-26T00:36:07;96762.66;;;8.74;100.00
36630;BME280;36256;42.154;23.002;2024-02-26T00:38:34;96765.13;;;8.72;100.00
36630;BME280;36256;42.154;23.002;2024-02-26T00:41:01;96763.88;;;8.73;100.00
36630;BME280;36256;42.154;23.002;2024-02-26T00:43:28;96757.56;;;8.82;100.00
36630;BME280;36256;42.154;23.002;2024-02-26T00:45:54;96759.47;;;8.85;100.00
36630;BME280;36256;42.154;23.002;2024-02-26T00:48:21;96752.16;;;8.87;100.00
36630;BME280;36256;42.154;23.002;2024-02-26T00:50:48;96753.91;;;8.94;100.00
36630;BME280;36256;42.154;23.002;2024-02-26T00:53:14;96749.75;;;8.98;100.00
36630;BME280;36256;42.154;23.002;2024-02-26T00:55:41;96735.03;;;8.85;100.00
36630;BME280;36256;42.154;23.002;2024-02-26T00:58:08;96735.03;;;8.85;100.00
36630;BME280;36256;42.154;23.002;2024-02-26T01:00:35;96737.53;;;8.83;100.00
36630;BME280;36256;42.154;23.002;2024-02-26T01:03:02;96744.84;;;8.81;100.00
36630;BME280;36256;42.154;23.002;2024-02-26T01:05:30;96740.00;;;8.81;100.00
36630;BME280;36256;42.154;23.002;2024-02-26T01:07:57;96730.38;;;8.82;100.00
36630;BME280;36256;42.154;23.002;2024-02-26T01:10:23;96734.16;;;8.88;100.00
36630;BME280;36256;42.154;23.002;2024-02-26T01:12:50;96738.97;;;8.88;100.00
36630;BME280;36256;42.154;23.002;2024-02-26T01:15:16;96724.50;;;8.89;100.00
36630;BME280;36256;42.154;23.002;2024-02-26T01:17:45;96730.56;;;8.88;100.00
36630;BME280;36256;42.154;23.002;2024-02-26T01:20:12;96723.28;;;8.90;100.00
36630;BME280;36256;42.154;23.002;2024-02-26T01:22:38;96725.19;;;8.93;100.00
36630;BME280;36256;42.154;23.002;2024-02-26T01:25:07;96721.13;;;8.94;100.00
36630;BME280;36256;42.154;23.002;2024-02-26T01:27:34;96716.63;;;8.97;100.00
36630;BME280;36256;42.154;23.002;2024-02-26T01:30:01;96716.16;;;8.98;100.00
36630;BME280;36256;42.154;23.002;2024-02-26T01:32:29;96716.16;;;8.98;100.00
36630;BME280;36256;42.154;23.002;2024-02-26T01:34:56;96710.47;;;8.80;100.00
36630;BME280;36256;42.154;23.002;2024-02-26T01:37:23;96710.09;;;8.69;100.00
36630;BME280;36256;42.154;23.002;2024-02-26T01:39:49;96706.81;;;8.70;100.00
36630;BME280;36256;42.154;23.002;2024-02-26T01:42:16;96702.91;;;8.68;100.00
36630;BME280;36256;42.154;23.002;2024-02-26T01:44:43;96708.97;;;8.66;100.00
36630;BME280;36256;42.154;23.002;2024-02-26T01:47:10;96704.50;;;8.69;100.00
36630;BME280;36256;42.154;23.002;2024-02-26T01:49:37;96704.34;;;8.73;100.00
36630;BME280;36256;42.154;23.002;2024-02-26T01:52:06;96704.25;;;8.76;100.00
36630;BME280;36256;42.154;23.002;2024-02-26T01:54:34;96705.78;;;8.77;100.00
36630;BME280;36256;42.154;23.002;2024-02-26T01:57:01;96708.00;;;8.82;100.00
36630;BME280;36256;42.154;23.002;2024-02-26T01:59:28;96714.88;;;8.90;100.00
36630;BME280;36256;42.154;23.002;2024-02-26T02:01:55;96713.00;;;8.87;100.00
36630;BME280;36256;42.154;23.002;2024-02-26T02:04:23;96714.56;;;8.66;100.00
36630;BME280;36256;42.154;23.002;2024-02-26T02:06:54;96699.22;;;8.71;100.00
36630;BME280;36256;42.154;23.002;2024-02-26T02:09:21;96710.47;;;8.80;100.00
36630;BME280;36256;42.154;23.002;2024-02-26T02:11:49;96701.63;;;8.82;100.00
36630;BME280;36256;42.154;23.002;2024-02-26T02:14:16;96705.53;;;8.84;100.00
36630;BME280;36256;42.154;23.002;2024-02-26T02:16:42;96695.13;;;8.85;100.00
36630;BME280;36256;42.154;23.002;2024-02-26T02:19:09;96702.13;;;8.89;100.00
36630;BME280;36256;42.154;23.002;2024-02-26T02:21:36;96707.72;;;8.89;100.00
36630;BME280;36256;42.154;23.002;2024-02-26T02:24:02;96708.66;;;8.86;100.00
36630;BME280;36256;42.154;23.002;2024-02-26T02:26:29;96710.06;;;8.91;100.00
36630;BME280;36256;42.154;23.002;2024-02-26T02:28:56;96704.19;;;8.98;100.00
36630;BME280;36256;42.154;23.002;2024-02-26T02:31:22;96709.34;;;8.99;100.00
36630;BME280;36256;42.154;23.002;2024-02-26T02:33:49;96718.06;;;9.01;100.00
36630;BME280;36256;42.154;23.002;2024-02-26T02:36:16;96715.59;;;9.03;100.00
36630;BME280;36256;42.154;23.002;2024-02-26T02:38:49;96717.09;;;8.95;100.00
36630;BME280;36256;42.154;23.002;2024-02-26T02:41:17;96717.13;;;9.04;100.00
36630;BME280;36256;42.154;23.002;2024-02-26T02:43:44;96709.13;;;9.15;100.00
36630;BME280;36256;42.154;23.002;2024-02-26T02:46:10;96702.94;;;9.20;100.00
36630;BME280;36256;42.154;23.002;2024-02-26T02:48:41;96700.78;;;9.24;100.00
36630;BME280;36256;42.154;23.002;2024-02-26T02:51:08;96691.00;;;9.29;100.00
36630;BME280;36256;42.154;23.002;2024-02-26T02:53:35;96695.19;;;9.33;100.00
36630;BME280;36256;42.154;23.002;2024-02-26T02:56:02;96700.03;;;9.33;100.00
36630;BME280;36256;42.154;23.002;2024-02-26T02:58:28;96698.94;;;9.30;100.00
36630;BME280;36256;42.154;23.002;2024-02-26T03:00:55;96702.94;;;9.29;100.00
36630;BME280;36256;42.154;23.002;2024-02-26T03:03:22;96698.75;;;9.25;100.00
36630;BME280;36256;42.154;23.002;2024-02-26T03:05:50;96700.44;;;9.22;100.00
36630;BME280;36256;42.154;23.002;2024-02-26T03:08:17;96688.28;;;9.16;100.00
36630;BME280;36256;42.154;23.002;2024-02-26T03:10:45;96683.59;;;9.13;100.00
36630;BME280;36256;42.154;23.002;2024-02-26T03:13:12;96683.59;;;9.13;100.00
36630;BME280;36256;42.154;23.002;2024-02-26T03:15:38;96671.63;;;9.13;100.00
36630;BME280;36256;42.154;23.002;2024-02-26T03:18:05;96680.63;;;9.08;100.00
36630;BME280;36256;42.154;23.002;2024-02-26T03:20:32;96675.31;;;9.01;100.00
36630;BME280;36256;42.154;23.002;2024-02-26T03:22:58;96676.69;;;8.96;100.00
36630;BME280;36256;42.154;23.002;2024-02-26T03:25:25;96667.38;;;8.99;100.00
36630;BME280;36256;42.154;23.002;2024-02-26T03:27:51;96669.72;;;9.01;100.00
36630;BME280;36256;42.154;23.002;2024-02-26T03:30:18;96668.59;;;8.98;100.00
36630;BME280;36256;42.154;23.002;2024-02-26T03:32:45;96668.59;;;8.98;100.00
36630;BME280;36256;42.154;23.002;2024-02-26T03:35:13;96668.13;;;9.00;100.00
36630;BME280;36256;42.154;23.002;2024-02-26T03:37:40;96665.53;;;9.05;100.00
36630;BME280;36256;42.154;23.002;2024-02-26T03:40:06;96678.03;;;8.92;100.00
36630;BME280;36256;42.154;23.002;2024-02-26T03:42:33;96677.22;;;8.82;100.00
36630;BME280;36256;42.154;23.002;2024-02-26T03:45:00;96673.50;;;8.85;100.00
36630;BME280;36256;42.154;23.002;2024-02-26T03:47:26;96675.72;;;8.90;100.00
36630;BME280;36256;42.154;23.002;2024-02-26T03:49:53;96669.06;;;8.97;100.00
36630;BME280;36256;42.154;23.002;2024-02-26T03:52:20;96669.84;;;8.97;100.00
36630;BME280;36256;42.154;23.002;2024-02-26T03:54:46;96656.81;;;9.03;100.00
36630;BME280;36256;42.154;23.002;2024-02-26T03:57:13;96666.44;;;9.02;100.00
36630;BME280;36256;42.154;23.002;2024-02-26T03:59:39;96660.84;;;9.02;100.00
36630;BME280;36256;42.154;23.002;2024-02-26T04:02:06;96656.53;;;9.10;100.00
36630;BME280;36256;42.154;23.002;2024-02-26T04:04:36;96660.16;;;9.20;100.00
36630;BME280;36256;42.154;23.002;2024-02-26T04:07:02;96655.97;;;9.24;100.00
36630;BME280;36256;42.154;23.002;2024-02-26T04:09:31;96658.47;;;9.22;100.00
36630;BME280;36256;42.154;23.002;2024-02-26T04:11:57;96655.78;;;9.10;100.00
36630;BME280;36256;42.154;23.002;2024-02-26T04:14:24;96648.44;;;9.12;100.00
36630;BME280;36256;42.154;23.002;2024-02-26T04:16:50;96655.31;;;9.11;100.00
36630;BME280;36256;42.154;23.002;2024-02-26T04:19:18;96662.78;;;9.14;100.00
36630;BME280;36256;42.154;23.002;2024-02-26T04:21:45;96660.00;;;9.14;100.00
36630;BME280;36256;42.154;23.002;2024-02-26T04:24:12;96649.69;;;9.11;100.00
36630;BME280;36256;42.154;23.002;2024-02-26T04:26:39;96646.28;;;9.07;100.00
36630;BME280;36256;42.154;23.002;2024-02-26T04:29:05;96640.66;;;9.07;100.00
36630;BME280;36256;42.154;23.002;2024-02-26T04:31:32;96647.50;;;9.06;100.00
36630;BME280;36256;42.154;23.002;2024-02-26T04:33:59;96648.28;;;9.07;100.00
36630;BME280;36256;42.154;23.002;2024-02-26T04:36:26;96657.47;;;9.07;100.00
36630;BME280;36256;42.154;23.002;2024-02-26T04:38:52;96645.00;;;8.99;100.00
36630;BME280;36256;42.154;23.002;2024-02-26T04:41:22;96655.13;;;9.06;100.00
36630;BME280;36256;42.154;23.002;2024-02-26T04:43:48;96659.94;;;9.05;100.00
36630;BME280;36256;42.154;23.002;2024-02-26T04:46:15;96654.34;;;9.05;100.00
36630;BME280;36256;42.154;23.002;2024-02-26T04:48:41;96657.78;;;9.09;100.00
36630;BME280;36256;42.154;23.002;2024-02-26T04:51:08;96659.66;;;9.12;100.00
36630;BME280;36256;42.154;23.002;2024-02-26T04:53:35;96662.91;;;9.11;100.00
36630;BME280;36256;42.154;23.002;2024-02-26T04:56:02;96662.13;;;9.10;100.00
36630;BME280;36256;42.154;23.002;2024-02-26T04:58:28;96663.06;;;9.07;100.00
36630;BME280;36256;42.154;23.002;2024-02-26T05:00:55;96660.59;;;9.09;100.00
36630;BME280;36256;42.154;23.002;2024-02-26T05:03:22;96656.53;;;9.10;100.00
36630;BME280;36256;42.154;23.002;2024-02-26T05:05:49;96665.69;;;9.02;100.00
36630;BME280;36256;42.154;23.002;2024-02-26T05:08:16;96660.03;;;8.93;100.00
36630;BME280;36256;42.154;23.002;2024-02-26T05:10:42;96658.13;;;8.90;100.00
36630;BME280;36256;42.154;23.002;2024-02-26T05:13:11;96664.78;;;8.83;100.00
36630;BME280;36256;42.154;23.002;2024-02-26T05:15:37;96670.53;;;8.80;100.00
36630;BME280;36256;42.154;23.002;2024-02-26T05:18:04;96677.56;;;8.84;100.00
36630;BME280;36256;42.154;23.002;2024-02-26T05:20:31;96681.13;;;8.85;100.00
36630;BME280;36256;42.154;23.002;2024-02-26T05:23:01;96681.56;;;8.83;100.00
36630;BME280;36256;42.154;23.002;2024-02-26T05:25:28;96674.91;;;8.81;100.00
36630;BME280;36256;42.154;23.002;2024-02-26T05:27:54;96674.69;;;8.75;100.00
36630;BME280;36256;42.154;23.002;2024-02-26T05:30:21;96675.88;;;8.65;100.00
36630;BME280;36256;42.154;23.002;2024-02-26T05:32:48;96678.59;;;8.56;100.00
36630;BME280;36256;42.154;23.002;2024-02-26T05:35:14;96678.59;;;8.56;100.00
36630;BME280;36256;42.154;23.002;2024-02-26T05:37:41;96684.09;;;8.59;100.00
36630;BME280;36256;42.154;23.002;2024-02-26T05:40:08;96678.94;;;8.58;100.00
36630;BME280;36256;42.154;23.002;2024-02-26T05:42:34;96687.84;;;8.44;100.00
36630;BME280;36256;42.154;23.002;2024-02-26T05:45:01;96691.63;;;8.50;100.00
36630;BME280;36256;42.154;23.002;2024-02-26T05:47:33;96695.69;;;8.36;100.00
36630;BME280;36256;42.154;23.002;2024-02-26T05:50:00;96703.69;;;8.47;100.00
36630;BME280;36256;42.154;23.002;2024-02-26T05:52:27;96706.56;;;8.56;100.00
36630;BME280;36256;42.154;23.002;2024-02-26T05:54:58;96702.91;;;8.68;100.00
36630;BME280;36256;42.154;23.002;2024-02-26T05:57:24;96700.19;;;8.77;100.00
36630;BME280;36256;42.154;23.002;2024-02-26T05:59:51;96708.31;;;8.84;100.00
36630;BME280;36256;42.154;23.002;2024-02-26T06:02:17;96707.13;;;8.94;100.00
36630;BME280;36256;42.154;23.002;2024-02-26T06:04:44;96710.00;;;9.03;100.00
36630;BME280;36256;42.154;23.002;2024-02-26T06:07:10;96710.63;;;9.07;100.00
36630;BME280;36256;42.154;23.002;2024-02-26T06:09:37;96711.59;;;9.13;100.00
36630;BME280;36256;42.154;23.002;2024-02-26T06:12:03;96707.09;;;9.16;100.00
36630;BME280;36256;42.154;23.002;2024-02-26T06:14:30;96709.13;;;9.15;100.00
36630;BME280;36256;42.154;23.002;2024-02-26T06:16:57;96704.16;;;9.19;100.00
36630;BME280;36256;42.154;23.002;2024-02-26T06:19:23;96706.38;;;9.24;100.00
36630;BME280;36256;42.154;23.002;2024-02-26T06:21:50;96705.44;;;9.27;100.00
36630;BME280;36256;42.154;23.002;2024-02-26T06:24:17;96701.72;;;9.30;100.00
36630;BME280;36256;42.154;23.002;2024-02-26T06:26:44;96703.94;;;9.35;100.00
36630;BME280;36256;42.154;23.002;2024-02-26T06:29:10;96705.81;;;9.38;100.00
36630;BME280;36256;42.154;23.002;2024-02-26T06:31:37;96711.56;;;9.35;100.00
36630;BME280;36256;42.154;23.002;2024-02-26T06:34:04;96709.59;;;9.23;100.00
36630;BME280;36256;42.154;23.002;2024-02-26T06:36:31;96724.72;;;9.25;100.00
36630;BME280;36256;42.154;23.002;2024-02-26T06:38:58;96712.28;;;9.26;100.00
36630;BME280;36256;42.154;23.002;2024-02-26T06:41:25;96717.28;;;9.31;100.00
36630;BME280;36256;42.154;23.002;2024-02-26T06:43:54;96723.53;;;9.35;100.00
36630;BME280;36256;42.154;23.002;2024-02-26T06:46:21;96722.28;;;9.36;100.00
36630;BME280;36256;42.154;23.002;2024-02-26T06:48:48;96728.72;;;9.46;100.00
36630;BME280;36256;42.154;23.002;2024-02-26T06:51:14;96724.50;;;9.50;100.00
36630;BME280;36256;42.154;23.002;2024-02-26T06:53:41;96721.41;;;9.48;100.00
36630;BME280;36256;42.154;23.002;2024-02-26T06:56:07;96730.03;;;9.32;100.00
36630;BME280;36256;42.154;23.002;2024-02-26T06:58:34;96734.38;;;9.24;100.00
36630;BME280;36256;42.154;23.002;2024-02-26T07:01:01;96727.56;;;9.34;100.00
36630;BME280;36256;42.154;23.002;2024-02-26T07:03:27;96717.84;;;9.48;100.00
36630;BME280;36256;42.154;23.002;2024-02-26T07:05:54;96721.69;;;9.41;100.00
36630;BME280;36256;42.154;23.002;2024-02-26T07:08:21;96729.78;;;9.39;100.00
36630;BME280;36256;42.154;23.002;2024-02-26T07:10:47;96737.25;;;9.42;100.00
36630;BME280;36256;42.154;23.002;2024-02-26T07:13:14;96733.22;;;9.52;100.00
36630;BME280;36256;42.154;23.002;2024-02-26T07:15:40;96738.56;;;9.60;100.00
36630;BME280;36256;42.154;23.002;2024-02-26T07:18:07;96731.75;;;9.70;100.00
36630;BME280;36256;42.154;23.002;2024-02-26T07:20:34;96725.84;;;9.77;100.00
36630;BME280;36256;42.154;23.002;2024-02-26T07:23:00;96732.09;;;9.81;100.00
36630;BME280;36256;42.154;23.002;2024-02-26T07:25:27;96727.13;;;9.85;100.00
36630;BME280;36256;42.154;23.002;2024-02-26T07:27:54;96736.66;;;9.96;100.00
36630;BME280;36256;42.154;23.002;2024-02-26T07:30:20;96729.34;;;9.99;100.00
36630;BME280;36256;42.154;23.002;2024-02-26T07:32:47;96734.06;;;10.11;100.00
36630;BME280;36256;42.154;23.002;2024-02-26T07:35:16;96725.69;;;10.20;100.00
36630;BME280;36256;42.154;23.002;2024-02-26T07:37:44;96734.09;;;10.29;100.00
36630;BME280;36256;42.154;23.002;2024-02-26T07:40:10;96741.91;;;10.34;100.00
36630;BME280;36256;42.154;23.002;2024-02-26T07:42:37;96740.31;;;10.33;100.00
36630;BME280;36256;42.154;23.002;2024-02-26T07:45:04;96749.97;;;10.41;100.00
36630;BME280;36256;42.154;23.002;2024-02-26T07:47:31;96756.09;;;10.49;100.00
36630;BME280;36256;42.154;23.002;2024-02-26T07:49:57;96747.69;;;10.58;100.00
36630;BME280;36256;42.154;23.002;2024-02-26T07:52:27;96735.50;;;10.70;100.00
36630;BME280;36256;42.154;23.002;2024-02-26T07:54:54;96745.31;;;10.83;100.00
36630;BME280;36256;42.154;23.002;2024-02-26T07:57:20;96736.28;;;10.88;100.00
36630;BME280;36256;42.154;23.002;2024-02-26T07:59:48;96735.00;;;10.98;100.00
36630;BME280;36256;42.154;23.002;2024-02-26T08:02:16;96727.97;;;11.12;100.00
36630;BME280;36256;42.154;23.002;2024-02-26T08:04:43;96731.81;;;11.24;100.00
36630;BME280;36256;42.154;23.002;2024-02-26T08:07:10;96729.91;;;11.39;100.00
36630;BME280;36256;42.154;23.002;2024-02-26T08:09:36;96724.91;;;11.43;100.00
36630;BME280;36256;42.154;23.002;2024-02-26T08:12:03;96724.44;;;11.44;100.00
36630;BME280;36256;42.154;23.002;2024-02-26T08:14:30;96732.38;;;11.55;100.00
36630;BME280;36256;42.154;23.002;2024-02-26T08:16:59;96730.78;;;11.63;100.00
36630;BME280;36256;42.154;23.002;2024-02-26T08:19:26;96723.28;;;11.60;100.00
36630;BME280;36256;42.154;23.002;2024-02-26T08:21:53;96727.00;;;11.66;100.00
36630;BME280;36256;42.154;23.002;2024-02-26T08:24:19;96736.41;;;11.63;100.00
36630;BME280;36256;42.154;23.002;2024-02-26T08:26:46;96733.59;;;11.63;100.00
36630;BME280;36256;42.154;23.002;2024-02-26T08:29:13;96735.75;;;11.68;100.00
36630;BME280;36256;42.154;23.002;2024-02-26T08:31:39;96732.13;;;11.76;100.00
36630;BME280;36256;42.154;23.002;2024-02-26T08:34:06;96736.34;;;11.81;100.00
36630;BME280;36256;42.154;23.002;2024-02-26T08:36:33;96731.63;;;11.87;100.00
36630;BME280;36256;42.154;23.002;2024-02-26T08:39:00;96732.09;;;11.86;100.00
36630;BME280;36256;42.154;23.002;2024-02-26T08:41:27;96731.28;;;11.94;100.00
36630;BME280;36256;42.154;23.002;2024-02-26T08:43:53;96727.81;;;11.99;100.00
36630;BME280;36256;42.154;23.002;2024-02-26T08:46:21;96732.09;;;12.18;100.00
36630;BME280;36256;42.154;23.002;2024-02-26T08:48:47;96725.00;;;12.23;100.00
36630;BME280;36256;42.154;23.002;2024-02-26T08:51:14;96717.59;;;12.34;100.00
36630;BME280;36256;42.154;23.002;2024-02-26T08:53:41;96725.69;;;12.41;99.90
36630;BME280;36256;42.154;23.002;2024-02-26T08:56:09;96719.97;;;12.50;98.28
36630;BME280;36256;42.154;23.002;2024-02-26T08:58:38;96711.38;;;12.69;98.65
36630;BME280;36256;42.154;23.002;2024-02-26T09:01:04;96707.72;;;12.77;96.64
36630;BME280;36256;42.154;23.002;2024-02-26T09:03:31;96708.22;;;12.90;96.67
36630;BME280;36256;42.154;23.002;2024-02-26T09:05:58;96706.03;;;13.09;97.04
36630;BME280;36256;42.154;23.002;2024-02-26T09:08:24;96708.34;;;13.25;95.03
36630;BME280;36256;42.154;23.002;2024-02-26T09:10:51;96707.75;;;13.35;93.46
36630;BME280;36256;42.154;23.002;2024-02-26T09:13:18;96703.78;;;13.42;92.42
36630;BME280;36256;42.154;23.002;2024-02-26T09:15:45;96707.97;;;13.47;92.55
36630;BME280;36256;42.154;23.002;2024-02-26T09:18:12;96706.78;;;13.53;92.10
36630;BME280;36256;42.154;23.002;2024-02-26T09:20:40;96709.03;;;13.49;90.54
36630;BME280;36256;42.154;23.002;2024-02-26T09:23:06;96700.72;;;13.60;90.09
36630;BME280;36256;42.154;23.002;2024-02-26T09:25:33;96704.88;;;13.79;90.79
36630;BME280;36256;42.154;23.002;2024-02-26T09:28:00;96711.09;;;13.83;88.81
36630;BME280;36256;42.154;23.002;2024-02-26T09:30:27;96706.94;;;13.79;88.23
36630;BME280;36256;42.154;23.002;2024-02-26T09:32:54;96710.63;;;13.85;87.87
36630;BME280;36256;42.154;23.002;2024-02-26T09:35:20;96717.22;;;13.82;88.16
36630;BME280;36256;42.154;23.002;2024-02-26T09:37:47;96713.91;;;13.83;86.99
36630;BME280;36256;42.154;23.002;2024-02-26T09:40:15;96712.38;;;13.82;88.15
36630;BME280;36256;42.154;23.002;2024-02-26T09:42:45;96720.53;;;13.80;88.87
36630;BME280;36256;42.154;23.002;2024-02-26T09:45:18;96706.50;;;13.86;85.49
36630;BME280;36256;42.154;23.002;2024-02-26T09:47:47;96710.56;;;13.99;85.82
36630;BME280;36256;42.154;23.002;2024-02-26T09:50:14;96712.38;;;13.82;87.44
36630;BME280;36256;42.154;23.002;2024-02-26T09:52:44;96699.69;;;13.92;86.80
36630;BME280;36256;42.154;23.002;2024-02-26T09:55:10;96707.09;;;14.25;84.18
36630;BME280;36256;42.154;23.002;2024-02-26T09:57:37;96705.00;;;14.40;81.80
36630;BME280;36256;42.154;23.002;2024-02-26T10:00:04;96707.66;;;14.49;83.60
36630;BME280;36256;42.154;23.002;2024-02-26T10:02:35;96692.84;;;14.74;80.35
36630;BME280;36256;42.154;23.002;2024-02-26T10:05:04;96688.75;;;15.01;78.57
36630;BME280;36256;42.154;23.002;2024-02-26T10:07:33;96693.47;;;15.09;74.28
36630;BME280;36256;42.154;23.002;2024-02-26T10:10:02;96692.19;;;15.10;75.80
36630;BME280;36256;42.154;23.002;2024-02-26T10:12:29;96684.59;;;15.22;73.50
36630;BME280;36256;42.154;23.002;2024-02-26T10:14:57;96677.72;;;15.28;70.88
36630;BME280;36256;42.154;23.002;2024-02-26T10:17:24;96676.53;;;15.40;73.60
36630;BME280;36256;42.154;23.002;2024-02-26T10:19:51;96669.78;;;15.58;72.59
36630;BME280;36256;42.154;23.002;2024-02-26T10:22:21;96666.63;;;15.82;70.69
36630;BME280;36256;42.154;23.002;2024-02-26T10:24:48;96657.66;;;15.89;72.73
36630;BME280;36256;42.154;23.002;2024-02-26T10:27:15;96662.50;;;15.83;70.32
36630;BME280;36256;42.154;23.002;2024-02-26T10:29:41;96659.69;;;15.83;70.92
36630;BME280;36256;42.154;23.002;2024-02-26T10:32:09;96648.88;;;15.81;69.83
36630;BME280;36256;42.154;23.002;2024-02-26T10:34:37;96659.16;;;15.84;71.89
36630;BME280;36256;42.154;23.002;2024-02-26T10:37:08;96656.16;;;15.99;71.43
36630;BME280;36256;42.154;23.002;2024-02-26T10:39:36;96654.44;;;16.07;69.27
36630;BME280;36256;42.154;23.002;2024-02-26T10:42:03;96646.56;;;15.85;69.19
36630;BME280;36256;42.154;23.002;2024-02-26T10:44:36;96645.56;;;15.88;68.06
36630;BME280;36256;42.154;23.002;2024-02-26T10:47:02;96635.56;;;15.93;68.29
36630;BME280;36256;42.154;23.002;2024-02-26T10:49:29;96643.78;;;15.91;69.58
36630;BME280;36256;42.154;23.002;2024-02-26T10:51:56;96626.53;;;15.89;66.25
36630;BME280;36256;42.154;23.002;2024-02-26T10:54:26;96629.97;;;16.04;67.63
36630;BME280;36256;42.154;23.002;2024-02-26T10:56:55;96628.72;;;16.10;66.19
36630;BME280;36256;42.154;23.002;2024-02-26T10:59:22;96623.56;;;16.09;65.40
36630;BME280;36256;42.154;23.002;2024-02-26T11:01:49;96612.25;;;16.14;62.42
36630;BME280;36256;42.154;23.002;2024-02-26T11:04:16;96614.84;;;16.18;63.16
36630;BME280;36256;42.154;23.002;2024-02-26T11:06:46;96608.91;;;16.16;63.25
36630;BME280;36256;42.154;23.002;2024-02-26T11:09:15;96602.25;;;16.19;62.53
36630;BME280;36256;42.154;23.002;2024-02-26T11:11:42;96602.97;;;16.08;62.31
36630;BME280;36256;42.154;23.002;2024-02-26T11:14:09;96607.31;;;16.04;62.55
36630;BME280;36256;42.154;23.002;2024-02-26T11:16:37;96605.22;;;15.99;63.60
36630;BME280;36256;42.154;23.002;2024-02-26T11:19:05;96606.81;;;16.05;62.41
36630;BME280;36256;42.154;23.002;2024-02-26T11:21:33;96597.06;;;16.12;61.38
36630;BME280;36256;42.154;23.002;2024-02-26T11:24:12;96605.28;;;16.10;63.22
36630;BME280;36256;42.154;23.002;2024-02-26T11:26:42;96599.41;;;16.13;63.43
36630;BME280;36256;42.154;23.002;2024-02-26T11:29:12;96597.13;;;16.23;64.32
36630;BME280;36256;42.154;23.002;2024-02-26T11:31:40;96595.66;;;16.38;66.41
36630;BME280;36256;42.154;23.002;2024-02-26T11:34:07;96599.56;;;16.52;62.50
36630;BME280;36256;42.154;23.002;2024-02-26T11:36:35;96587.41;;;16.46;62.05
36630;BME280;36256;42.154;23.002;2024-02-26T11:39:03;96594.94;;;16.55;62.71
36630;BME280;36256;42.154;23.002;2024-02-26T11:41:30;96588.53;;;16.65;62.62
36630;BME280;36256;42.154;23.002;2024-02-26T11:43:58;96592.41;;;16.68;62.67
36630;BME280;36256;42.154;23.002;2024-02-26T11:46:30;96589.84;;;16.70;60.44
36630;BME280;36256;42.154;23.002;2024-02-26T11:51:50;96577.19;;;16.65;61.00
36630;BME280;36256;42.154;23.002;2024-02-26T11:57:04;96587.53;;;16.79;61.37
36630;BME280;36256;42.154;23.002;2024-02-26T11:59:37;96587.00;;;16.75;58.89
36630;BME280;36256;42.154;23.002;2024-02-26T12:02:04;96582.88;;;16.65;58.55
36630;BME280;36256;42.154;23.002;2024-02-26T12:04:30;96584.91;;;16.59;59.42
36630;BME280;36256;42.154;23.002;2024-02-26T12:07:00;96587.97;;;16.50;59.53
36630;BME280;36256;42.154;23.002;2024-02-26T12:09:40;96590.31;;;16.63;60.21
36630;BME280;36256;42.154;23.002;2024-02-26T12:12:08;96595.28;;;16.84;61.35
36630;BME280;36256;42.154;23.002;2024-02-26T12:14:51;96589.59;;;17.06;60.05
36630;BME280;36256;42.154;23.002;2024-02-26T12:17:22;96575.19;;;17.15;58.64
36630;BME280;36256;42.154;23.002;2024-02-26T12:19:49;96574.94;;;17.13;59.13
36630;BME280;36256;42.154;23.002;2024-02-26T12:22:18;96573.66;;;17.03;58.13
36630;BME280;36256;42.154;23.002;2024-02-26T12:24:45;96570.56;;;17.01;58.72
36630;BME280;36256;42.154;23.002;2024-02-26T12:27:12;96571.84;;;16.89;58.98
36630;BME280;36256;42.154;23.002;2024-02-26T12:29:39;96570.81;;;16.87;59.53
36630;BME280;36256;42.154;23.002;2024-02-26T12:32:05;96569.78;;;16.84;59.84
36630;BME280;36256;42.154;23.002;2024-02-26T12:34:33;96578.53;;;16.86;59.05
36630;BME280;36256;42.154;23.002;2024-02-26T12:37:00;96581.34;;;16.86;58.84
36630;BME280;36256;42.154;23.002;2024-02-26T12:39:27;96574.66;;;16.78;59.01
36630;BME280;36256;42.154;23.002;2024-02-26T12:41:53;96572.09;;;16.80;58.94
36630;BME280;36256;42.154;23.002;2024-02-26T12:44:24;96574.66;;;16.78;58.66
36630;BME280;36256;42.154;23.002;2024-02-26T12:46:59;96571.81;;;16.84;59.23
36630;BME280;36256;42.154;23.002;2024-02-26T12:49:27;96581.34;;;16.86;57.54
36630;BME280;36256;42.154;23.002;2024-02-26T12:51:53;96570.03;;;16.86;58.32
36630;BME280;36256;42.154;23.002;2024-02-26T12:54:21;96570.53;;;16.90;56.77